Time;durP1;ratioP1;P1;durP2;ratioP2;P2;SDS_P1;SDS_P2;PMS_P1;PMS_P2;Temp;Humidity;BMP_temperature;BMP_pressure;BME280_temperature;BME280_humidity;BME280_pressure;Samples;Min_cycle;Max_cycle;Signal;HPM_P1;HPM_P2
2022/11/18 00:02:06;;;;;;;1.05;0.77;;;10.50;82.10;;;;;;5019163;28;20081;-72
2022/11/18 00:07:54;;;;;;;1.20;0.77;;;10.50;81.90;;;;;;5031460;28;20048;-72
2022/11/18 00:10:19;;;;;;;0.65;0.60;;;10.50;82.70;;;;;;5019733;28;20520;-72
2022/11/18 00:15:43;;;;;;;2.00;1.13;;;10.50;82.00;;;;;;5012280;28;20048;-72
2022/11/18 00:18:09;;;;;;;1.50;0.90;;;10.50;82.10;;;;;;5044114;28;20548;-72
2022/11/18 00:20:35;;;;;;;1.40;0.70;;;10.50;81.90;;;;;;5012015;28;20106;-72
2022/11/18 00:23:00;;;;;;;0.47;0.47;;;10.60;82.00;;;;;;5012286;28;20014;-72
2022/11/18 00:25:26;;;;;;;2.15;1.13;;;10.60;82.10;;;;;;5012409;28;20041;-72
2022/11/18 00:27:53;;;;;;;0.50;0.50;;;10.60;82.00;;;;;;5021812;28;20026;-72
2022/11/18 00:30:19;;;;;;;1.52;0.70;;;10.60;82.00;;;;;;5010898;28;20026;-72
2022/11/18 00:32:45;;;;;;;0.50;0.50;;;10.60;82.00;;;;;;5020375;28;20080;-72
2022/11/18 00:35:10;;;;;;;1.00;0.57;;;10.50;82.00;;;;;;5030085;28;20515;-72
2022/11/18 00:37:36;;;;;;;2.55;0.93;;;10.50;82.00;;;;;;5020263;28;20030;-72
2022/11/18 00:40:03;;;;;;;1.83;0.90;;;10.50;82.00;;;;;;5056908;28;20510;-72
2022/11/18 00:45:13;;;;;;;1.15;0.82;;;10.50;82.00;;;;;;5019253;28;20124;-72
2022/11/18 01:05:49;;;;;;;1.05;0.60;;;10.20;82.20;;;;;;4987999;28;20061;-71
2022/11/18 01:08:16;;;;;;;0.82;0.80;;;10.20;82.40;;;;;;5029128;28;20037;-72
2022/11/18 01:10:42;;;;;;;1.48;0.82;;;10.20;82.30;;;;;;5015314;28;20058;-72
2022/11/18 01:19:52;;;;;;;3.33;0.70;;;10.20;82.30;;;;;;5019544;28;20068;-72
2022/11/18 01:22:18;;;;;;;5.35;0.88;;;10.10;82.40;;;;;;5007509;28;20053;-72
2022/11/18 01:24:43;;;;;;;1.77;0.70;;;10.20;82.50;;;;;;5029253;28;20033;-72
2022/11/18 01:27:09;;;;;;;1.25;0.98;;;10.20;82.50;;;;;;5012675;28;20064;-72
2022/11/18 01:29:35;;;;;;;1.35;0.95;;;10.10;82.40;;;;;;5016634;28;20029;-72
2022/11/18 01:32:01;;;;;;;1.40;0.90;;;10.20;82.40;;;;;;5010192;28;20076;-72
2022/11/18 01:34:28;;;;;;;1.98;0.90;;;10.20;82.40;;;;;;5010928;28;20038;-72
2022/11/18 01:36:55;;;;;;;1.38;0.80;;;10.20;82.30;;;;;;5009409;28;20022;-72
2022/11/18 01:39:21;;;;;;;0.93;0.85;;;10.20;82.40;;;;;;5010555;28;20099;-72
2022/11/18 01:41:47;;;;;;;2.15;1.05;;;10.20;82.40;;;;;;5011945;28;20487;-71
2022/11/18 01:44:50;;;;;;;1.27;0.70;;;10.20;83.00;;;;;;5032714;28;20133;-72
2022/11/18 01:47:16;;;;;;;1.02;0.70;;;10.30;82.40;;;;;;5000190;28;20451;-72
2022/11/18 01:49:41;;;;;;;2.38;0.93;;;10.30;82.40;;;;;;5012136;28;20033;-72
2022/11/18 01:52:08;;;;;;;2.58;0.65;;;10.30;82.40;;;;;;5009542;28;20088;-72
2022/11/18 01:54:39;;;;;;;0.90;0.70;;;10.30;82.40;;;;;;5007920;28;20042;-72
2022/11/18 01:57:11;;;;;;;1.25;0.80;;;10.30;82.50;;;;;;5011124;28;20017;-72
2022/11/18 01:59:41;;;;;;;1.73;0.68;;;10.30;82.50;;;;;;5010790;28;20053;-72
2022/11/18 02:02:10;;;;;;;3.92;0.85;;;10.30;82.50;;;;;;5007151;28;20044;-72
2022/11/18 02:04:43;;;;;;;1.08;0.82;;;10.20;82.50;;;;;;5043523;28;20026;-72
2022/11/18 02:07:10;;;;;;;0.80;0.60;;;10.30;82.60;;;;;;5010875;28;20042;-72
2022/11/18 02:09:37;;;;;;;1.52;0.93;;;10.30;82.50;;;;;;5041580;28;20106;-72
2022/11/18 02:12:04;;;;;;;0.40;0.40;;;10.30;82.60;;;;;;5011410;28;20367;-72
2022/11/18 02:14:33;;;;;;;0.88;0.82;;;10.30;82.60;;;;;;5011228;28;20080;-70
2022/11/18 02:17:18;;;;;;;1.13;0.85;;;10.30;82.60;;;;;;5011208;28;20369;-70
2022/11/18 02:19:46;;;;;;;1.70;0.85;;;10.30;82.60;;;;;;5001914;28;20025;-70
2022/11/18 02:22:33;;;;;;;1.00;0.70;;;10.40;82.80;;;;;;5011536;28;20026;-70
2022/11/18 02:25:21;;;;;;;2.22;1.17;;;10.50;82.70;;;;;;5007966;28;20600;-70
2022/11/18 02:27:55;;;;;;;1.10;0.73;;;10.50;82.60;;;;;;5019448;28;20037;-70
2022/11/18 02:30:21;;;;;;;2.60;1.13;;;10.50;82.60;;;;;;5010248;28;20520;-70
2022/11/18 02:33:03;;;;;;;0.55;0.55;;;10.60;82.60;;;;;;5020264;28;20104;-71
2022/11/18 02:35:36;;;;;;;3.00;0.80;;;10.60;82.50;;;;;;5028536;28;20033;-70
2022/11/18 02:38:04;;;;;;;;;;;10.60;82.50;;;;;;5025947;28;20026;-70
2022/11/18 02:40:37;;;;;;;0.90;0.63;;;10.60;82.60;;;;;;5018152;28;19905;-70
2022/11/18 02:43:08;;;;;;;0.80;0.73;;;10.50;82.70;;;;;;5010743;28;20041;-70
2022/11/18 02:45:38;;;;;;;1.30;0.77;;;10.50;82.70;;;;;;5018135;28;20052;-72
2022/11/18 02:48:10;;;;;;;2.08;0.63;;;10.60;82.80;;;;;;5027696;28;20313;-72
2022/11/18 02:50:40;;;;;;;1.13;0.70;;;10.50;82.70;;;;;;5026797;28;20696;-72
2022/11/18 02:53:09;;;;;;;0.40;0.40;;;10.50;82.80;;;;;;5023210;28;20029;-72
2022/11/18 02:55:38;;;;;;;0.63;0.60;;;10.50;82.80;;;;;;5019478;28;20124;-72
2022/11/18 02:58:05;;;;;;;3.33;1.00;;;10.50;82.80;;;;;;5026569;28;20026;-72
2022/11/18 03:00:32;;;;;;;1.20;0.77;;;10.50;82.80;;;;;;5017284;28;20109;-72
2022/11/18 03:02:59;;;;;;;0.25;0.25;;;10.50;82.80;;;;;;5014543;28;20037;-72
2022/11/18 03:05:24;;;;;;;2.45;0.63;;;10.40;82.80;;;;;;5023130;28;20029;-72
2022/11/18 03:07:55;;;;;;;0.47;0.47;;;10.50;82.90;;;;;;5032063;28;20049;-72
2022/11/18 03:10:24;;;;;;;1.23;0.50;;;10.50;82.90;;;;;;5021745;28;20481;-72
2022/11/18 03:13:20;;;;;;;3.88;0.98;;;10.50;83.00;;;;;;5019581;28;20032;-72
2022/11/18 03:16:01;;;;;;;0.68;0.63;;;10.50;82.80;;;;;;5028300;28;20048;-72
2022/11/18 03:18:39;;;;;;;1.10;0.60;;;10.50;82.90;;;;;;5018310;28;20025;-72
2022/11/18 03:21:15;;;;;;;1.38;0.80;;;10.50;82.90;;;;;;5000359;28;20026;-72
2022/11/18 03:23:58;;;;;;;1.15;0.90;;;10.50;83.20;;;;;;5026319;28;20072;-72
2022/11/18 03:26:38;;;;;;;4.15;1.08;;;10.50;82.90;;;;;;5015115;28;20042;-70
2022/11/18 03:29:11;;;;;;;1.38;0.63;;;10.50;82.90;;;;;;5003116;28;20018;-72
2022/11/18 03:31:39;;;;;;;0.65;0.65;;;10.50;83.00;;;;;;5010991;28;20542;-72
2022/11/18 03:34:22;;;;;;;1.60;0.82;;;10.50;83.00;;;;;;5012443;28;20014;-72
2022/11/18 03:36:56;;;;;;;1.23;0.70;;;10.50;83.00;;;;;;5011938;28;20072;-72
2022/11/18 03:39:24;;;;;;;1.95;0.70;;;10.50;83.00;;;;;;5064152;28;20238;-72
2022/11/18 03:42:00;;;;;;;0.88;0.40;;;10.50;83.10;;;;;;5025336;28;20029;-72
2022/11/18 03:44:31;;;;;;;1.38;0.80;;;10.60;83.10;;;;;;5024385;28;20545;-72
2022/11/18 03:47:13;;;;;;;0.93;0.65;;;10.50;83.10;;;;;;5031067;28;20052;-72
2022/11/18 03:50:08;;;;;;;;;;;10.60;83.10;;;;;;5032680;28;20025;-72
2022/11/18 03:52:36;;;;;;;4.13;0.70;;;10.50;83.20;;;;;;5022018;28;19955;-72
2022/11/18 03:55:11;;;;;;;0.75;0.63;;;10.50;83.20;;;;;;5005843;28;20030;-72
2022/11/18 03:57:45;;;;;;;1.20;0.80;;;10.60;83.20;;;;;;5031046;28;20360;-72
2022/11/18 04:00:14;;;;;;;0.88;0.70;;;10.60;83.10;;;;;;5027871;28;20109;-72
2022/11/18 04:02:41;;;;;;;0.50;0.50;;;10.60;83.10;;;;;;5016051;28;20026;-72
2022/11/18 04:05:11;;;;;;;1.02;0.70;;;10.60;83.10;;;;;;5004836;28;20032;-71
2022/11/18 04:07:54;;;;;;;1.35;0.77;;;10.60;83.10;;;;;;5027114;28;20072;-72
2022/11/18 04:10:24;;;;;;;1.98;0.70;;;10.60;83.10;;;;;;5055135;28;20036;-72
2022/11/18 04:13:10;;;;;;;1.38;0.82;;;10.60;83.10;;;;;;5021968;28;20029;-72
2022/11/18 04:15:38;;;;;;;0.32;0.30;;;10.60;83.20;;;;;;5025956;28;20326;-72
2022/11/18 04:18:05;;;;;;;1.15;0.88;;;10.60;83.30;;;;;;5012075;28;20022;-72
2022/11/18 04:20:32;;;;;;;0.82;0.70;;;10.60;83.40;;;;;;5022009;28;20052;-72
2022/11/18 04:22:58;;;;;;;2.08;0.90;;;10.60;83.40;;;;;;5011378;28;20030;-71
2022/11/18 04:25:25;;;;;;;2.60;1.00;;;10.60;83.40;;;;;;5024301;28;20041;-71
2022/11/18 04:27:51;;;;;;;1.75;0.85;;;10.60;83.40;;;;;;5030740;28;20033;-71
2022/11/18 04:30:17;;;;;;;2.28;0.70;;;10.60;83.40;;;;;;5027946;28;20038;-72
2022/11/18 04:32:43;;;;;;;2.15;0.82;;;10.60;83.30;;;;;;5009410;28;20030;-72
2022/11/18 04:35:08;;;;;;;0.70;0.70;;;10.60;83.40;;;;;;5029671;28;20030;-72
2022/11/18 04:37:34;;;;;;;0.70;0.70;;;10.60;83.40;;;;;;5018150;28;20030;-72
2022/11/18 04:40:00;;;;;;;2.28;0.95;;;10.60;83.40;;;;;;5022722;28;20053;-72
2022/11/18 04:42:26;;;;;;;0.63;0.60;;;10.60;83.40;;;;;;5022922;28;20508;-70
2022/11/18 04:44:52;;;;;;;2.83;1.17;;;10.60;83.40;;;;;;5057726;28;20030;-72
2022/11/18 04:47:17;;;;;;;1.25;0.80;;;10.60;83.40;;;;;;5012042;28;20088;-72
2022/11/18 04:49:43;;;;;;;0.93;0.60;;;10.60;83.40;;;;;;5010560;28;20034;-72
2022/11/18 04:52:10;;;;;;;4.07;0.82;;;10.60;83.40;;;;;;5017762;28;20038;-72
2022/11/18 04:54:36;;;;;;;1.30;0.60;;;10.60;83.50;;;;;;5019632;28;20018;-72
2022/11/18 04:57:02;;;;;;;0.85;0.60;;;10.60;83.60;;;;;;5015715;28;20037;-72
2022/11/18 04:59:28;;;;;;;1.52;0.90;;;10.60;83.60;;;;;;5010261;28;20072;-72
2022/11/18 05:01:59;;;;;;;1.05;0.73;;;10.60;83.60;;;;;;5007835;28;20046;-72
2022/11/18 05:04:29;;;;;;;1.38;0.82;;;10.60;83.50;;;;;;4997663;28;20037;-72
2022/11/18 05:06:55;;;;;;;1.63;1.23;;;10.60;83.60;;;;;;5010622;28;20060;-72
2022/11/18 05:09:21;;;;;;;0.68;0.65;;;10.60;83.60;;;;;;5017355;28;20057;-72
2022/11/18 05:14:32;;;;;;;5.95;0.82;;;10.60;83.80;;;;;;5021643;28;20097;-72
2022/11/18 05:17:00;;;;;;;1.55;0.57;;;10.60;83.70;;;;;;5015933;28;20539;-72
2022/11/18 05:19:26;;;;;;;1.27;0.73;;;10.60;83.80;;;;;;5011848;28;20026;-72
2022/11/18 05:21:52;;;;;;;2.70;0.93;;;10.60;83.90;;;;;;5044155;28;20034;-72
2022/11/18 05:24:18;;;;;;;0.80;0.70;;;10.60;83.80;;;;;;5012698;28;20034;-72
2022/11/18 05:26:44;;;;;;;1.60;1.05;;;10.70;83.80;;;;;;5024066;28;20120;-72
2022/11/18 05:29:10;;;;;;;0.75;0.68;;;10.60;83.80;;;;;;5002615;28;20064;-72
2022/11/18 05:31:36;;;;;;;0.50;0.50;;;10.60;83.80;;;;;;5015861;28;20057;-72
2022/11/18 05:34:02;;;;;;;0.60;0.60;;;10.60;83.90;;;;;;5047085;28;20026;-72
2022/11/18 05:36:28;;;;;;;1.08;0.90;;;10.60;83.90;;;;;;5021002;28;20037;-72
2022/11/18 05:38:56;;;;;;;0.82;0.60;;;10.60;83.90;;;;;;5020044;28;20026;-72
2022/11/18 05:44:06;;;;;;;0.60;0.60;;;10.60;83.90;;;;;;5019009;28;20071;-70
2022/11/18 05:46:33;;;;;;;0.75;0.57;;;10.60;83.90;;;;;;5013643;28;20054;-72
2022/11/18 05:48:59;;;;;;;0.65;0.65;;;10.60;84.00;;;;;;5026829;28;20392;-72
2022/11/18 05:51:25;;;;;;;1.30;0.93;;;10.60;83.90;;;;;;5016162;28;20481;-71
2022/11/18 05:53:51;;;;;;;3.00;0.90;;;10.60;84.00;;;;;;5011033;28;20030;-72
2022/11/18 05:56:32;;;;;;;0.50;0.47;;;10.60;83.90;;;;;;5023679;28;20469;-70
2022/11/18 05:58:57;;;;;;;2.85;1.10;;;10.60;83.90;;;;;;5006884;28;20499;-72
2022/11/18 06:01:42;;;;;;;1.38;0.80;;;10.60;83.90;;;;;;5048431;28;20069;-72
2022/11/18 06:04:16;;;;;;;3.88;0.73;;;10.60;83.90;;;;;;5017854;28;20039;-72
2022/11/18 06:06:44;;;;;;;1.15;0.70;;;10.60;83.90;;;;;;5015598;28;20045;-72
2022/11/18 06:09:13;;;;;;;0.82;0.80;;;10.60;83.90;;;;;;5012249;28;20478;-71
2022/11/18 06:11:46;;;;;;;0.52;0.47;;;10.60;83.90;;;;;;5019796;28;20462;-70
2022/11/18 06:14:25;;;;;;;0.93;0.93;;;10.70;83.90;;;;;;5007691;28;20026;-70
2022/11/18 06:16:56;;;;;;;1.05;0.80;;;10.70;83.90;;;;;;5021704;28;20026;-70
2022/11/18 06:19:23;;;;;;;1.15;0.77;;;10.70;83.90;;;;;;5015997;28;20055;-70
2022/11/18 06:21:49;;;;;;;0.75;0.70;;;10.70;84.50;;;;;;5008506;28;20329;-72
2022/11/18 06:24:15;;;;;;;1.27;0.93;;;10.60;83.90;;;;;;5011548;28;20040;-72
2022/11/18 06:26:42;;;;;;;1.85;0.93;;;10.60;84.00;;;;;;5045770;28;20104;-72
2022/11/18 06:29:10;;;;;;;1.00;0.90;;;10.60;84.10;;;;;;5028887;28;20100;-72
2022/11/18 06:31:35;;;;;;;1.95;0.77;;;10.60;84.20;;;;;;5019815;28;20025;-72
2022/11/18 06:34:01;;;;;;;1.45;1.10;;;10.50;84.20;;;;;;4999770;28;20072;-72
2022/11/18 06:36:27;;;;;;;0.50;0.50;;;10.50;84.20;;;;;;5014370;28;20477;-72
2022/11/18 06:38:52;;;;;;;1.25;0.85;;;10.50;84.20;;;;;;5012945;28;20124;-72
2022/11/18 06:41:18;;;;;;;4.20;1.00;;;10.40;84.20;;;;;;5022043;28;20053;-72
2022/11/18 06:43:44;;;;;;;1.55;0.82;;;10.40;84.30;;;;;;5033146;28;20029;-72
2022/11/18 06:48:56;;;;;;;0.73;0.70;;;10.40;84.40;;;;;;5013089;28;20502;-72
2022/11/18 06:51:23;;;;;;;1.05;0.98;;;10.30;84.40;;;;;;5030185;28;20120;-71
2022/11/18 06:53:49;;;;;;;1.58;0.75;;;10.30;84.40;;;;;;5031405;28;20025;-72
2022/11/18 06:56:16;;;;;;;1.88;0.70;;;10.30;84.30;;;;;;5030265;28;20041;-72
2022/11/18 06:58:42;;;;;;;1.45;0.68;;;10.30;84.30;;;;;;5023855;28;20512;-72
2022/11/18 07:01:17;;;;;;;1.48;0.98;;;10.30;84.90;;;;;;5027738;28;20041;-72
2022/11/18 07:03:44;;;;;;;1.55;1.45;;;10.30;84.30;;;;;;5030935;28;20438;-72
2022/11/18 07:06:12;;;;;;;1.30;1.02;;;10.20;84.30;;;;;;5030742;28;20604;-72
2022/11/18 07:08:41;;;;;;;1.27;1.17;;;10.30;84.30;;;;;;5032688;28;20018;-71
2022/11/18 07:11:09;;;;;;;1.27;1.10;;;10.20;84.20;;;;;;5031539;28;20252;-71
2022/11/18 07:13:35;;;;;;;1.50;1.13;;;10.20;84.10;;;;;;5032151;28;20431;-73
2022/11/18 07:16:06;;;;;;;1.10;1.00;;;10.20;84.20;;;;;;5025432;28;20018;-71
2022/11/18 07:18:33;;;;;;;1.50;1.08;;;10.10;84.20;;;;;;5031617;28;20033;-72
2022/11/18 07:21:04;;;;;;;1.50;1.30;;;10.10;84.20;;;;;;5006966;28;20368;-72
2022/11/18 07:23:31;;;;;;;0.95;0.95;;;10.10;84.10;;;;;;5029114;28;20034;-71
2022/11/18 07:25:57;;;;;;;1.90;1.00;;;10.10;84.10;;;;;;5030857;28;20116;-71
2022/11/18 07:28:24;;;;;;;1.55;0.70;;;10.10;84.10;;;;;;5022835;28;20037;-71
2022/11/18 07:30:50;;;;;;;1.77;1.00;;;10.10;84.00;;;;;;5025150;28;20045;-72
2022/11/18 07:33:16;;;;;;;1.52;1.20;;;10.10;83.90;;;;;;5027904;28;20054;-71
2022/11/18 07:35:42;;;;;;;2.25;0.80;;;10.20;84.00;;;;;;5020207;28;20038;-72
2022/11/18 07:38:07;;;;;;;1.90;1.17;;;10.20;83.80;;;;;;5018178;28;20394;-72
2022/11/18 07:40:33;;;;;;;2.60;1.25;;;10.20;83.80;;;;;;5043693;28;20040;-71
2022/11/18 07:42:59;;;;;;;4.20;0.82;;;10.30;83.80;;;;;;5028189;28;20034;-69
2022/11/18 07:45:25;;;;;;;1.08;0.98;;;10.30;83.80;;;;;;5013378;28;20036;-70
2022/11/18 07:47:50;;;;;;;1.83;0.90;;;10.40;83.70;;;;;;5031738;28;20099;-70
2022/11/18 07:50:17;;;;;;;0.80;0.80;;;10.40;83.60;;;;;;5026786;28;20055;-70
2022/11/18 07:52:43;;;;;;;1.77;0.95;;;10.50;83.70;;;;;;5030629;28;20021;-71
2022/11/18 07:55:09;;;;;;;1.42;0.75;;;10.50;83.70;;;;;;5031851;28;20026;-69
2022/11/18 07:57:34;;;;;;;0.98;0.77;;;10.50;83.60;;;;;;5030109;28;20030;-69
2022/11/18 08:00:00;;;;;;;1.02;0.90;;;10.60;83.70;;;;;;5019039;28;20017;-70
2022/11/18 08:02:26;;;;;;;3.58;1.30;;;10.60;83.60;;;;;;5028856;28;20033;-69
2022/11/18 08:04:51;;;;;;;1.00;0.90;;;10.60;83.70;;;;;;5027573;28;20018;-69
2022/11/18 08:07:17;;;;;;;1.35;0.85;;;10.60;83.80;;;;;;5011831;28;20050;-69
2022/11/18 08:09:43;;;;;;;1.30;0.57;;;10.70;83.80;;;;;;5012730;28;20162;-70
2022/11/18 08:12:08;;;;;;;0.77;0.77;;;10.70;83.80;;;;;;5017627;28;20030;-70
2022/11/18 08:14:34;;;;;;;1.50;1.05;;;10.70;83.80;;;;;;5037888;28;20026;-69
2022/11/18 08:17:00;;;;;;;2.22;1.25;;;10.70;83.80;;;;;;5013161;28;20041;-70
2022/11/18 08:19:26;;;;;;;1.25;1.05;;;10.80;83.90;;;;;;5054467;28;20075;-70
2022/11/18 08:21:52;;;;;;;1.10;1.00;;;10.80;83.80;;;;;;5021769;28;20116;-70
2022/11/18 08:24:17;;;;;;;3.00;1.27;;;10.80;83.60;;;;;;5036366;28;20029;-70
2022/11/18 08:26:44;;;;;;;0.73;0.73;;;10.80;83.70;;;;;;5024423;28;20026;-70
2022/11/18 08:29:09;;;;;;;3.55;1.20;;;10.90;83.80;;;;;;5009317;28;20161;-72
2022/11/18 08:31:35;;;;;;;3.15;1.08;;;10.90;83.60;;;;;;5008184;28;20104;-68
2022/11/18 08:34:06;;;;;;;1.05;0.80;;;10.90;83.60;;;;;;5014006;28;20029;-72
2022/11/18 08:36:34;;;;;;;1.85;1.15;;;11.00;83.60;;;;;;5020568;28;20468;-72
2022/11/18 08:39:02;;;;;;;1.67;1.00;;;11.00;83.60;;;;;;5009073;28;20049;-72
2022/11/18 08:41:34;;;;;;;2.83;1.25;;;11.00;83.60;;;;;;5017006;28;20544;-72
2022/11/18 08:44:00;;;;;;;0.85;0.85;;;11.00;83.60;;;;;;5013019;28;20361;-72
2022/11/18 08:46:26;;;;;;;1.33;1.10;;;11.00;83.60;;;;;;5020118;28;20468;-72
2022/11/18 08:48:52;;;;;;;0.75;0.75;;;11.00;83.50;;;;;;5017246;28;20096;-70
2022/11/18 08:51:18;;;;;;;1.02;0.88;;;11.10;83.40;;;;;;5012170;28;20102;-70
2022/11/18 08:53:43;;;;;;;1.55;1.25;;;11.10;83.30;;;;;;5019899;28;20021;-70
2022/11/18 08:56:15;;;;;;;2.30;1.58;;;11.20;83.30;;;;;;5021022;28;20102;-71
2022/11/18 08:58:41;;;;;;;1.25;0.88;;;11.30;83.20;;;;;;5019598;28;20500;-70
2022/11/18 09:01:07;;;;;;;0.90;0.65;;;11.30;83.20;;;;;;5014716;28;20489;-70
2022/11/18 09:03:34;;;;;;;1.30;0.95;;;11.30;83.50;;;;;;5022020;28;20104;-70
2022/11/18 09:06:14;;;;;;;2.10;1.33;;;11.40;83.00;;;;;;5019708;28;20029;-71
2022/11/18 09:08:40;;;;;;;2.00;1.40;;;11.50;82.90;;;;;;5011530;28;20543;-70
2022/11/18 09:11:17;;;;;;;5.22;1.10;;;11.50;82.80;;;;;;5017317;28;20029;-71
2022/11/18 09:13:43;;;;;;;0.90;0.55;;;11.60;82.70;;;;;;5021755;28;20041;-70
2022/11/18 09:16:09;;;;;;;2.72;1.38;;;11.70;82.60;;;;;;5018078;28;20096;-70
2022/11/18 09:18:35;;;;;;;1.95;1.00;;;11.80;82.50;;;;;;5016279;28;20041;-70
2022/11/18 09:21:04;;;;;;;1.08;0.90;;;11.90;82.30;;;;;;5033275;28;20481;-71
2022/11/18 09:23:32;;;;;;;3.03;1.30;;;12.00;82.20;;;;;;5017915;28;20468;-70
2022/11/18 09:26:09;;;;;;;4.75;1.55;;;12.20;81.80;;;;;;5001591;28;20088;-70
2022/11/18 09:28:35;;;;;;;0.88;0.88;;;12.30;81.50;;;;;;5002688;28;20030;-70
2022/11/18 09:31:09;;;;;;;1.00;0.90;;;12.30;81.50;;;;;;5006782;28;20022;-70
2022/11/18 09:33:36;;;;;;;0.95;0.82;;;12.40;81.00;;;;;;5014138;28;20108;-70
2022/11/18 09:36:03;;;;;;;1.70;1.00;;;12.40;80.80;;;;;;5007411;28;20401;-70
2022/11/18 09:38:29;;;;;;;1.35;0.80;;;12.40;80.60;;;;;;5011039;28;20022;-70
2022/11/18 09:41:13;;;;;;;1.20;1.10;;;12.50;80.80;;;;;;5012013;28;20362;-70
2022/11/18 09:44:17;;;;;;;1.98;1.33;;;12.50;80.40;;;;;;5009509;28;20532;-70
2022/11/18 09:47:00;;;;;;;1.17;0.90;;;12.70;80.20;;;;;;5006258;28;20120;-70
2022/11/18 09:49:37;;;;;;;1.02;0.88;;;12.80;80.00;;;;;;5014148;28;20033;-70
2022/11/18 09:52:16;;;;;;;1.42;0.80;;;12.70;79.80;;;;;;5006738;28;20105;-70
2022/11/18 09:54:41;;;;;;;1.50;0.80;;;12.70;79.90;;;;;;5008799;28;20539;-70
2022/11/18 09:57:19;;;;;;;1.63;1.35;;;12.60;79.90;;;;;;5026158;28;20030;-70
2022/11/18 09:59:46;;;;;;;5.00;1.27;;;12.50;79.70;;;;;;5009055;28;20504;-70
2022/11/18 10:02:42;;;;;;;2.05;1.05;;;12.40;79.80;;;;;;5013288;28;20025;-70
2022/11/18 10:05:27;;;;;;;1.88;1.00;;;12.30;80.10;;;;;;5009784;28;20388;-70
2022/11/18 10:08:26;;;;;;;1.80;1.17;;;12.30;80.30;;;;;;5013707;28;20030;-70
2022/11/18 10:11:06;;;;;;;0.98;0.93;;;12.30;80.00;;;;;;5015198;28;20068;-70
2022/11/18 10:13:54;;;;;;;2.72;1.15;;;12.30;80.20;;;;;;5009970;28;20076;-70
2022/11/18 10:16:34;;;;;;;2.00;1.05;;;12.20;80.20;;;;;;5001682;28;21506;-70
2022/11/18 10:19:41;;;;;;;3.88;1.85;;;12.20;80.30;;;;;;5025609;28;20037;-71
2022/11/18 10:22:26;;;;;;;1.52;1.10;;;12.10;80.20;;;;;;4980720;28;20034;-68
2022/11/18 10:24:54;;;;;;;1.30;1.02;;;12.10;80.50;;;;;;5003143;28;20109;-71
2022/11/18 10:27:21;;;;;;;3.85;1.25;;;12.10;80.40;;;;;;5013335;28;20057;-71
2022/11/18 10:29:56;;;;;;;1.33;1.02;;;12.10;81.10;;;;;;5002766;28;20113;-71
2022/11/18 10:32:22;;;;;;;5.45;1.00;;;12.40;80.10;;;;;;5007901;28;20092;-70
2022/11/18 10:34:53;;;;;;;1.17;1.00;;;12.50;79.70;;;;;;5008629;28;20100;-70
2022/11/18 10:37:27;;;;;;;1.27;0.70;;;12.60;79.50;;;;;;4991625;28;20027;-70
2022/11/18 10:39:55;;;;;;;2.17;1.25;;;13.00;79.10;;;;;;5007967;28;20084;-70
2022/11/18 10:42:23;;;;;;;4.78;1.38;;;13.50;78.10;;;;;;5010647;28;20062;-70
2022/11/18 10:44:49;;;;;;;1.65;1.17;;;13.90;76.70;;;;;;5009168;28;20097;-70
2022/11/18 10:47:29;;;;;;;3.05;1.00;;;14.10;76.20;;;;;;5007113;28;20121;-71
2022/11/18 10:50:01;;;;;;;1.10;1.00;;;14.50;75.70;;;;;;5041161;28;20030;-70
2022/11/18 10:52:28;;;;;;;3.17;1.90;;;15.00;74.70;;;;;;5018392;28;20079;-71
2022/11/18 10:55:13;;;;;;;1.58;0.90;;;15.50;73.40;;;;;;5011652;28;20030;-70
2022/11/18 10:57:42;;;;;;;2.72;1.15;;;16.10;71.70;;;;;;5010749;28;20026;-71
2022/11/18 11:00:33;;;;;;;2.75;1.20;;;16.40;71.00;;;;;;5016584;28;20040;-71
2022/11/18 11:02:59;;;;;;;2.60;1.25;;;16.80;70.00;;;;;;5005248;28;20037;-70
2022/11/18 11:05:25;;;;;;;1.88;0.95;;;17.00;69.40;;;;;;5015536;28;20038;-70
2022/11/18 11:08:04;;;;;;;1.48;1.20;;;17.30;68.90;;;;;;5014924;28;20063;-70
2022/11/18 11:10:30;;;;;;;1.15;1.05;;;17.70;68.00;;;;;;5022207;28;20022;-70
2022/11/18 11:13:13;;;;;;;1.65;1.10;;;18.00;67.10;;;;;;5045335;28;20056;-70
2022/11/18 11:15:44;;;;;;;0.80;0.73;;;18.20;66.30;;;;;;5011589;28;20465;-70
2022/11/18 11:21:00;;;;;;;1.30;1.13;;;18.90;64.80;;;;;;5010183;28;20037;-70
2022/11/18 11:23:27;;;;;;;3.72;1.10;;;19.60;63.20;;;;;;5044090;28;20033;-70
2022/11/18 11:26:02;;;;;;;1.67;1.25;;;20.30;61.90;;;;;;5011726;28;20038;-70
2022/11/18 11:28:50;;;;;;;1.80;1.02;;;21.00;60.30;;;;;;5010602;28;20116;-70
2022/11/18 11:31:27;;;;;;;1.00;0.90;;;21.60;58.20;;;;;;5008101;28;20036;-70
2022/11/18 11:33:59;;;;;;;2.25;1.45;;;21.20;57.50;;;;;;5010714;28;20026;-72
2022/11/18 11:36:51;;;;;;;2.25;1.00;;;20.10;58.60;;;;;;5005679;28;20026;-72
2022/11/18 11:39:22;;;;;;;1.73;1.13;;;18.60;61.60;;;;;;5029264;28;20575;-72
2022/11/18 11:41:56;;;;;;;3.00;1.38;;;17.50;64.00;;;;;;5022332;28;20030;-70
2022/11/18 11:44:43;;;;;;;0.95;0.90;;;16.70;65.90;;;;;;5020276;28;20029;-69
2022/11/18 11:47:48;;;;;;;3.17;1.30;;;16.20;67.10;;;;;;5014408;28;20029;-69
2022/11/18 11:50:57;;;;;;;1.10;0.80;;;15.90;67.50;;;;;;5020903;28;20022;-69
2022/11/18 11:53:28;;;;;;;2.13;1.20;;;15.40;68.40;;;;;;5019818;28;20133;-70
2022/11/18 11:56:27;;;;;;;2.08;1.05;;;15.00;69.50;;;;;;5015170;28;20054;-70
2022/11/18 11:59:31;;;;;;;1.88;1.25;;;14.80;70.10;;;;;;5019250;28;20091;-70
2022/11/18 12:02:20;;;;;;;1.45;1.35;;;14.90;70.80;;;;;;5018661;28;20096;-70
2022/11/18 12:04:52;;;;;;;1.10;0.90;;;15.50;70.10;;;;;;5011367;28;20042;-69
2022/11/18 12:07:25;;;;;;;2.33;1.02;;;16.70;68.10;;;;;;5012829;28;20048;-70
2022/11/18 12:09:56;;;;;;;1.60;0.70;;;18.00;65.50;;;;;;5027539;28;20030;-70
2022/11/18 12:12:44;;;;;;;3.20;1.17;;;19.20;62.50;;;;;;5013527;28;20457;-70
2022/11/18 12:15:53;;;;;;;1.00;0.90;;;19.90;60.60;;;;;;5016688;28;20145;-70
2022/11/18 12:18:29;;;;;;;3.55;1.10;;;20.70;59.10;;;;;;5014273;28;20163;-70
2022/11/18 12:20:55;;;;;;;0.77;0.77;;;21.30;57.60;;;;;;5016105;28;20049;-71
2022/11/18 12:23:25;;;;;;;2.25;1.30;;;21.50;56.40;;;;;;5014814;28;20444;-69
2022/11/18 12:25:54;;;;;;;1.25;0.75;;;20.90;56.90;;;;;;5015874;28;20095;-70
2022/11/18 12:28:31;;;;;;;1.63;1.25;;;20.00;57.80;;;;;;5019089;28;20227;-68
2022/11/18 12:31:18;;;;;;;1.25;0.85;;;18.70;60.00;;;;;;5013013;28;20080;-68
2022/11/18 12:33:50;;;;;;;0.95;0.90;;;17.70;62.40;;;;;;5057562;28;20064;-69
2022/11/18 12:36:25;;;;;;;;;;;16.90;64.20;;;;;;5014899;28;20552;-69
2022/11/18 12:38:51;;;;;;;4.10;1.58;;;16.20;65.30;;;;;;5018510;28;19909;-69
2022/11/18 12:44:25;;;;;;;6.03;1.45;;;15.50;67.50;;;;;;5004624;28;20053;-71
2022/11/18 12:46:53;;;;;;;1.58;1.48;;;15.20;68.30;;;;;;5014125;28;20176;-71
2022/11/18 12:49:21;;;;;;;1.88;1.23;;;15.00;68.80;;;;;;5010711;28;20018;-71
2022/11/18 12:52:46;;;;;;;1.08;1.00;;;14.80;69.40;;;;;;5011897;28;20025;-72
2022/11/18 12:55:19;;;;;;;1.85;0.90;;;14.70;69.80;;;;;;5028039;28;20038;-71
2022/11/18 12:57:45;;;;;;;1.63;0.93;;;14.50;70.30;;;;;;5011906;28;20030;-72
2022/11/18 13:00:26;;;;;;;1.73;1.20;;;14.40;70.60;;;;;;5015671;28;20045;-71
2022/11/18 13:02:54;;;;;;;2.33;1.30;;;14.40;70.80;;;;;;5012225;28;20092;-71
2022/11/18 13:05:29;;;;;;;1.73;0.57;;;14.20;71.20;;;;;;5014228;28;20029;-71
2022/11/18 13:08:13;;;;;;;7.65;1.45;;;14.20;71.20;;;;;;5014759;28;20037;-71
2022/11/18 13:11:43;;;;;;;3.05;1.58;;;14.00;71.60;;;;;;5013849;28;20025;-71
2022/11/18 13:13:41;;;;;;;6.43;1.05;;;13.90;72.00;;;;;;5020102;28;20038;-72
2022/11/18 13:19:07;;;;;;;1.15;0.85;;;13.80;72.40;;;;;;5010920;28;20068;-71
2022/11/18 13:24:20;;;;;;;5.55;1.65;;;13.70;72.90;;;;;;5012758;28;20479;-71
2022/11/18 13:26:51;;;;;;;2.65;1.20;;;13.60;73.00;;;;;;5013078;28;20038;-71
2022/11/18 13:29:35;;;;;;;2.97;1.20;;;13.60;73.30;;;;;;5013739;28;20052;-71
2022/11/18 13:32:39;;;;;;;7.00;1.35;;;13.50;73.40;;;;;;5012411;28;20443;-72
2022/11/18 13:35:20;;;;;;;1.60;0.80;;;13.50;73.70;;;;;;4959048;28;20035;-71
2022/11/18 13:37:55;;;;;;;1.17;1.05;;;13.50;73.80;;;;;;4968896;28;20042;-71
2022/11/18 13:40:38;;;;;;;1.15;0.93;;;13.40;74.00;;;;;;4998280;28;20113;-71
2022/11/18 13:43:04;;;;;;;1.70;0.85;;;13.40;74.10;;;;;;5023354;28;20465;-71
2022/11/18 13:45:32;;;;;;;1.05;0.95;;;13.40;74.30;;;;;;5018151;28;20030;-68
2022/11/18 13:48:07;;;;;;;2.15;1.23;;;13.50;74.40;;;;;;5013901;28;20041;-68
2022/11/18 13:50:38;;;;;;;1.48;1.15;;;13.50;74.40;;;;;;5023876;28;20101;-69
2022/11/18 13:53:13;;;;;;;3.15;1.30;;;13.50;74.30;;;;;;5010329;28;20032;-68
2022/11/18 13:55:48;;;;;;;2.85;1.20;;;13.60;74.20;;;;;;5014308;28;20472;-69
2022/11/18 13:58:31;;;;;;;3.58;1.70;;;13.60;74.30;;;;;;5016464;28;20038;-69
2022/11/18 14:01:00;;;;;;;1.67;1.27;;;13.60;74.30;;;;;;5009770;28;20037;-69
2022/11/18 14:03:45;;;;;;;2.55;1.48;;;13.80;74.10;;;;;;5008668;28;20025;-69
2022/11/18 14:06:22;;;;;;;1.75;0.75;;;13.90;73.90;;;;;;5013611;28;20033;-69